Stratford, Oklahoma
Current Conditions -  °F | °C
As of 10:15 AM on Wednesday 28 Jan 2015 (Local Time) from KPVJ Reporting Station
Clear Clear  
Wind Chill: 63°   Ceiling: Unl
Heat Index: 63°   Visibility: 10mi
Dew Point: 43°   Wind: 8mph
Humidity: 47%   Direction: 180°S
Pressure: 30.05"   Gusts: NA
Location:  34.8°N, 96.96°W
Report Text: KPVJ 281615Z AUTO 18007KT 10SM CLR 17/06 A3005 RMK AO2 T01740060
Loading
Personal Weather Stations






























Interactive Weather Map New forecast layout! Learn more

10-Day Weather Forecast

Advertisements
Track Severe Weather on mobile